sensor_id;sensor_type;location;lat;lon;timestamp;pressure;altitude;pressure_sealevel;temperature;humidity
19023;BME280;35226;48.606;8.858;2022-10-16T00:00:56;96150.31;;;17.84;100.00
19023;BME280;35226;48.606;8.858;2022-10-16T00:03:22;96146.25;;;17.85;100.00
19023;BME280;35226;48.606;8.858;2022-10-16T00:05:48;96139.50;;;17.97;100.00
19023;BME280;35226;48.606;8.858;2022-10-16T00:08:14;96164.56;;;17.86;100.00
19023;BME280;35226;48.606;8.858;2022-10-16T00:10:40;96166.44;;;17.68;100.00
19023;BME280;35226;48.606;8.858;2022-10-16T00:13:08;96172.25;;;17.65;100.00
19023;BME280;35226;48.606;8.858;2022-10-16T00:15:36;96178.19;;;17.52;100.00
19023;BME280;35226;48.606;8.858;2022-10-16T00:18:03;96174.69;;;17.57;100.00
19023;BME280;35226;48.606;8.858;2022-10-16T00:20:29;96171.47;;;17.64;100.00
19023;BME280;35226;48.606;8.858;2022-10-16T00:22:56;96168.69;;;17.64;100.00
19023;BME280;35226;48.606;8.858;2022-10-16T00:25:22;96157.50;;;17.64;100.00
19023;BME280;35226;48.606;8.858;2022-10-16T00:27:48;96155.97;;;17.63;100.00
19023;BME280;35226;48.606;8.858;2022-10-16T00:30:14;96154.78;;;17.70;100.00
19023;BME280;35226;48.606;8.858;2022-10-16T00:32:39;96161.94;;;17.77;100.00
19023;BME280;35226;48.606;8.858;2022-10-16T00:35:05;96155.88;;;17.78;100.00
19023;BME280;35226;48.606;8.858;2022-10-16T00:37:31;96152.34;;;17.83;100.00
19023;BME280;35226;48.606;8.858;2022-10-16T00:39:56;96159.94;;;17.57;100.00
19023;BME280;35226;48.606;8.858;2022-10-16T00:42:22;96153.84;;;17.53;100.00
19023;BME280;35226;48.606;8.858;2022-10-16T00:44:55;96150.31;;;17.58;100.00
19023;BME280;35226;48.606;8.858;2022-10-16T00:47:34;96155.47;;;17.39;100.00
19023;BME280;35226;48.606;8.858;2022-10-16T00:50:09;96155.56;;;17.50;100.00
19023;BME280;35226;48.606;8.858;2022-10-16T00:52:39;96158.53;;;17.41;100.00
19023;BME280;35226;48.606;8.858;2022-10-16T00:55:09;96161.81;;;17.39;100.00
19023;BME280;35226;48.606;8.858;2022-10-16T00:57:35;96162.78;;;17.36;100.00
19023;BME280;35226;48.606;8.858;2022-10-16T01:00:04;96166.56;;;17.33;100.00
19023;BME280;35226;48.606;8.858;2022-10-16T01:02:30;96175.38;;;17.26;100.00
19023;BME280;35226;48.606;8.858;2022-10-16T01:04:56;96175.09;;;17.24;100.00
19023;BME280;35226;48.606;8.858;2022-10-16T01:07:53;96175.69;;;17.34;100.00
19023;BME280;35226;48.606;8.858;2022-10-16T01:13:13;96177.72;;;17.33;100.00
19023;BME280;35226;48.606;8.858;2022-10-16T01:18:20;96157.69;;;17.35;100.00
19023;BME280;35226;48.606;8.858;2022-10-16T01:20:58;96162.50;;;17.34;100.00
19023;BME280;35226;48.606;8.858;2022-10-16T01:28:42;96168.13;;;17.14;100.00
19023;BME280;35226;48.606;8.858;2022-10-16T01:31:14;96156.75;;;17.18;100.00
19023;BME280;35226;48.606;8.858;2022-10-16T01:33:45;96174.22;;;17.13;100.00
19023;BME280;35226;48.606;8.858;2022-10-16T01:36:21;96180.19;;;17.06;100.00
19023;BME280;35226;48.606;8.858;2022-10-16T01:38:51;96165.13;;;17.18;100.00
19023;BME280;35226;48.606;8.858;2022-10-16T01:41:36;96176.50;;;17.14;100.00
19023;BME280;35226;48.606;8.858;2022-10-16T01:44:10;96174.28;;;17.18;100.00
19023;BME280;35226;48.606;8.858;2022-10-16T01:46:40;96164.63;;;17.19;100.00
19023;BME280;35226;48.606;8.858;2022-10-16T01:49:08;96160.34;;;17.24;100.00
19023;BME280;35226;48.606;8.858;2022-10-16T01:51:35;96163.44;;;17.26;100.00
19023;BME280;35226;48.606;8.858;2022-10-16T01:54:01;96160.44;;;17.29;100.00
19023;BME280;35226;48.606;8.858;2022-10-16T01:56:28;96163.03;;;17.33;100.00
19023;BME280;35226;48.606;8.858;2022-10-16T01:59:04;96158.47;;;17.35;100.00
19023;BME280;35226;48.606;8.858;2022-10-16T02:01:33;96168.13;;;17.14;100.00
19023;BME280;35226;48.606;8.858;2022-10-16T02:04:07;96175.69;;;16.88;100.00
19023;BME280;35226;48.606;8.858;2022-10-16T02:06:34;96176.69;;;17.31;100.00
19023;BME280;35226;48.606;8.858;2022-10-16T02:09:01;96170.13;;;17.34;100.00
19023;BME280;35226;48.606;8.858;2022-10-16T02:11:26;96173.34;;;17.27;100.00
19023;BME280;35226;48.606;8.858;2022-10-16T02:13:55;96175.34;;;17.47;100.00
19023;BME280;35226;48.606;8.858;2022-10-16T02:16:33;96171.84;;;17.52;100.00
19023;BME280;35226;48.606;8.858;2022-10-16T02:19:00;96178.91;;;17.47;100.00
19023;BME280;35226;48.606;8.858;2022-10-16T02:21:28;96163.47;;;17.52;100.00
19023;BME280;35226;48.606;8.858;2022-10-16T02:29:04;96162.69;;;17.51;100.00
19023;BME280;35226;48.606;8.858;2022-10-16T02:31:35;96154.25;;;17.46;100.00
19023;BME280;35226;48.606;8.858;2022-10-16T02:34:05;96167.00;;;17.26;100.00
19023;BME280;35226;48.606;8.858;2022-10-16T02:36:32;96168.81;;;17.29;100.00
19023;BME280;35226;48.606;8.858;2022-10-16T02:39:00;96162.78;;;17.36;100.00
19023;BME280;35226;48.606;8.858;2022-10-16T02:41:26;96162.41;;;17.23;100.00
19023;BME280;35226;48.606;8.858;2022-10-16T02:43:52;96171.19;;;16.96;100.00
19023;BME280;35226;48.606;8.858;2022-10-16T02:46:20;96167.84;;;17.32;100.00
19023;BME280;35226;48.606;8.858;2022-10-16T02:48:46;96162.09;;;17.42;100.00
19023;BME280;35226;48.606;8.858;2022-10-16T02:51:11;96164.00;;;17.30;100.00
19023;BME280;35226;48.606;8.858;2022-10-16T02:53:37;96173.03;;;16.99;100.00
19023;BME280;35226;48.606;8.858;2022-10-16T02:56:03;96174.41;;;17.09;100.00
19023;BME280;35226;48.606;8.858;2022-10-16T02:58:28;96176.00;;;17.62;100.00
19023;BME280;35226;48.606;8.858;2022-10-16T03:00:55;96175.19;;;17.56;100.00
19023;BME280;35226;48.606;8.858;2022-10-16T03:03:20;96171.84;;;17.52;100.00
19023;BME280;35226;48.606;8.858;2022-10-16T03:05:46;96176.81;;;17.62;100.00
19023;BME280;35226;48.606;8.858;2022-10-16T03:08:12;96171.13;;;17.57;100.00
19023;BME280;35226;48.606;8.858;2022-10-16T03:10:38;96164.72;;;17.51;100.00
19023;BME280;35226;48.606;8.858;2022-10-16T03:13:03;96172.06;;;17.48;100.00
19023;BME280;35226;48.606;8.858;2022-10-16T03:15:29;96167.28;;;17.54;100.00
19023;BME280;35226;48.606;8.858;2022-10-16T03:17:56;96170.44;;;17.62;100.00
19023;BME280;35226;48.606;8.858;2022-10-16T03:20:22;96174.09;;;17.01;100.00
19023;BME280;35226;48.606;8.858;2022-10-16T03:22:48;96167.22;;;17.23;100.00
19023;BME280;35226;48.606;8.858;2022-10-16T03:25:13;96167.03;;;17.52;100.00
19023;BME280;35226;48.606;8.858;2022-10-16T03:27:39;96171.69;;;17.61;100.00
19023;BME280;35226;48.606;8.858;2022-10-16T03:30:05;96169.59;;;17.56;100.00
19023;BME280;35226;48.606;8.858;2022-10-16T03:32:31;96166.72;;;17.24;100.00
19023;BME280;35226;48.606;8.858;2022-10-16T03:34:56;96175.78;;;17.39;100.00
19023;BME280;35226;48.606;8.858;2022-10-16T03:37:22;96188.94;;;16.93;100.00
19023;BME280;35226;48.606;8.858;2022-10-16T03:39:48;96177.09;;;17.24;100.00
19023;BME280;35226;48.606;8.858;2022-10-16T03:42:13;96179.66;;;17.22;100.00
19023;BME280;35226;48.606;8.858;2022-10-16T03:44:39;96181.41;;;17.45;100.00
19023;BME280;35226;48.606;8.858;2022-10-16T03:47:04;96183.78;;;17.52;100.00
19023;BME280;35226;48.606;8.858;2022-10-16T03:49:30;96183.22;;;17.48;100.00
19023;BME280;35226;48.606;8.858;2022-10-16T03:51:55;96183.84;;;17.58;100.00
19023;BME280;35226;48.606;8.858;2022-10-16T03:54:21;96185.56;;;17.55;100.00
19023;BME280;35226;48.606;8.858;2022-10-16T03:56:47;96184.69;;;17.44;100.00
19023;BME280;35226;48.606;8.858;2022-10-16T03:59:13;96184.19;;;17.45;100.00
19023;BME280;35226;48.606;8.858;2022-10-16T04:01:39;96179.53;;;17.36;100.00
19023;BME280;35226;48.606;8.858;2022-10-16T04:04:04;96186.31;;;17.50;100.00
19023;BME280;35226;48.606;8.858;2022-10-16T04:06:30;96181.91;;;17.44;100.00
19023;BME280;35226;48.606;8.858;2022-10-16T04:08:56;96183.88;;;17.37;100.00
19023;BME280;35226;48.606;8.858;2022-10-16T04:11:21;96183.78;;;17.52;100.00
19023;BME280;35226;48.606;8.858;2022-10-16T04:13:47;96182.41;;;17.42;100.00
19023;BME280;35226;48.606;8.858;2022-10-16T04:16:13;96179.38;;;17.46;100.00
19023;BME280;35226;48.606;8.858;2022-10-16T04:18:39;96177.06;;;17.44;100.00
19023;BME280;35226;48.606;8.858;2022-10-16T04:21:05;96179.09;;;17.44;100.00
19023;BME280;35226;48.606;8.858;2022-10-16T04:23:32;96171.66;;;17.35;100.00
19023;BME280;35226;48.606;8.858;2022-10-16T04:25:57;96177.16;;;17.50;100.00
19023;BME280;35226;48.606;8.858;2022-10-16T04:28:23;96178.81;;;17.16;100.00
19023;BME280;35226;48.606;8.858;2022-10-16T04:30:48;96187.53;;;17.23;100.00
19023;BME280;35226;48.606;8.858;2022-10-16T04:33:14;96183.19;;;17.43;100.00
19023;BME280;35226;48.606;8.858;2022-10-16T04:35:39;96182.56;;;17.33;100.00
19023;BME280;35226;48.606;8.858;2022-10-16T04:38:05;96189.47;;;17.37;100.00
19023;BME280;35226;48.606;8.858;2022-10-16T04:40:31;96190.63;;;17.51;100.00
19023;BME280;35226;48.606;8.858;2022-10-16T04:43:02;96188.09;;;17.53;100.00
19023;BME280;35226;48.606;8.858;2022-10-16T04:45:28;96203.19;;;17.61;100.00
19023;BME280;35226;48.606;8.858;2022-10-16T04:47:57;96199.53;;;17.55;100.00
19023;BME280;35226;48.606;8.858;2022-10-16T04:50:23;96208.56;;;17.45;100.00
19023;BME280;35226;48.606;8.858;2022-10-16T04:53:04;96208.06;;;17.66;100.00
19023;BME280;35226;48.606;8.858;2022-10-16T04:55:29;96205.50;;;17.63;100.00
19023;BME280;35226;48.606;8.858;2022-10-16T04:57:55;96203.19;;;17.61;100.00
19023;BME280;35226;48.606;8.858;2022-10-16T05:00:20;96207.94;;;17.55;100.00
19023;BME280;35226;48.606;8.858;2022-10-16T05:02:49;96214.50;;;17.52;100.00
19023;BME280;35226;48.606;8.858;2022-10-16T05:05:15;96208.69;;;17.56;100.00
19023;BME280;35226;48.606;8.858;2022-10-16T05:07:40;96209.19;;;17.54;100.00
19023;BME280;35226;48.606;8.858;2022-10-16T05:10:06;96207.53;;;17.62;100.00
19023;BME280;35226;48.606;8.858;2022-10-16T05:12:32;96206.28;;;17.43;100.00
19023;BME280;35226;48.606;8.858;2022-10-16T05:14:57;96200.38;;;17.15;100.00
19023;BME280;35226;48.606;8.858;2022-10-16T05:17:26;96212.72;;;17.09;100.00
19023;BME280;35226;48.606;8.858;2022-10-16T05:19:52;96202.16;;;17.38;100.00
19023;BME280;35226;48.606;8.858;2022-10-16T05:22:18;96210.59;;;17.44;100.00
19023;BME280;35226;48.606;8.858;2022-10-16T05:24:44;96207.97;;;17.35;100.00
19023;BME280;35226;48.606;8.858;2022-10-16T05:27:10;96216.63;;;17.37;100.00
19023;BME280;35226;48.606;8.858;2022-10-16T05:29:36;96232.69;;;17.22;100.00
19023;BME280;35226;48.606;8.858;2022-10-16T05:32:02;96223.22;;;17.14;100.00
19023;BME280;35226;48.606;8.858;2022-10-16T05:34:28;96226.59;;;17.44;100.00
19023;BME280;35226;48.606;8.858;2022-10-16T05:36:53;96230.72;;;17.28;100.00
19023;BME280;35226;48.606;8.858;2022-10-16T05:39:19;96221.66;;;17.33;100.00
19023;BME280;35226;48.606;8.858;2022-10-16T05:41:45;96223.59;;;17.27;100.00
19023;BME280;35226;48.606;8.858;2022-10-16T05:44:10;96224.03;;;17.20;100.00
19023;BME280;35226;48.606;8.858;2022-10-16T05:46:36;96234.09;;;17.12;100.00
19023;BME280;35226;48.606;8.858;2022-10-16T05:49:02;96238.34;;;17.07;100.00
19023;BME280;35226;48.606;8.858;2022-10-16T05:51:28;96243.25;;;17.12;100.00
19023;BME280;35226;48.606;8.858;2022-10-16T05:53:53;96248.56;;;16.60;100.00
19023;BME280;35226;48.606;8.858;2022-10-16T05:56:19;96242.09;;;17.04;100.00
19023;BME280;35226;48.606;8.858;2022-10-16T05:58:45;96254.25;;;17.01;100.00
19023;BME280;35226;48.606;8.858;2022-10-16T06:01:15;96247.34;;;17.17;100.00
19023;BME280;35226;48.606;8.858;2022-10-16T06:03:41;96253.00;;;17.22;100.00
19023;BME280;35226;48.606;8.858;2022-10-16T06:06:15;96251.66;;;16.97;100.00
19023;BME280;35226;48.606;8.858;2022-10-16T06:08:42;96249.94;;;17.20;100.00
19023;BME280;35226;48.606;8.858;2022-10-16T06:11:10;96256.56;;;17.23;100.00
19023;BME280;35226;48.606;8.858;2022-10-16T06:13:36;96251.75;;;17.23;100.00
19023;BME280;35226;48.606;8.858;2022-10-16T06:16:03;96258.31;;;17.20;100.00
19023;BME280;35226;48.606;8.858;2022-10-16T06:18:29;96262.16;;;17.23;100.00
19023;BME280;35226;48.606;8.858;2022-10-16T06:20:56;96256.47;;;17.17;100.00
19023;BME280;35226;48.606;8.858;2022-10-16T06:23:22;96254.94;;;17.16;100.00
19023;BME280;35226;48.606;8.858;2022-10-16T06:25:48;96250.13;;;17.17;100.00
19023;BME280;35226;48.606;8.858;2022-10-16T06:28:14;96266.06;;;17.11;100.00
19023;BME280;35226;48.606;8.858;2022-10-16T06:30:40;96266.13;;;17.16;100.00
19023;BME280;35226;48.606;8.858;2022-10-16T06:33:06;96271.34;;;17.09;100.00
19023;BME280;35226;48.606;8.858;2022-10-16T06:35:31;96269.75;;;17.22;100.00
19023;BME280;35226;48.606;8.858;2022-10-16T06:37:57;96277.41;;;17.07;100.00
19023;BME280;35226;48.606;8.858;2022-10-16T06:40:23;96273.72;;;17.36;100.00
19023;BME280;35226;48.606;8.858;2022-10-16T06:42:49;96280.41;;;16.83;100.00
19023;BME280;35226;48.606;8.858;2022-10-16T06:45:15;96290.84;;;17.23;100.00
19023;BME280;35226;48.606;8.858;2022-10-16T06:47:41;96286.09;;;17.29;100.00
19023;BME280;35226;48.606;8.858;2022-10-16T06:50:06;96287.28;;;17.23;100.00
19023;BME280;35226;48.606;8.858;2022-10-16T06:52:33;96288.94;;;17.15;100.00
19023;BME280;35226;48.606;8.858;2022-10-16T06:54:59;96283.66;;;17.37;100.00
19023;BME280;35226;48.606;8.858;2022-10-16T06:57:25;96288.94;;;17.55;100.00
19023;BME280;35226;48.606;8.858;2022-10-16T06:59:51;96295.09;;;17.59;100.00
19023;BME280;35226;48.606;8.858;2022-10-16T07:02:16;96302.06;;;17.49;100.00
19023;BME280;35226;48.606;8.858;2022-10-16T07:04:42;96302.00;;;17.44;100.00
19023;BME280;35226;48.606;8.858;2022-10-16T07:07:07;96321.22;;;17.56;100.00
19023;BME280;35226;48.606;8.858;2022-10-16T07:09:33;96324.91;;;17.48;100.00
19023;BME280;35226;48.606;8.858;2022-10-16T07:11:59;96323.38;;;17.47;100.00
19023;BME280;35226;48.606;8.858;2022-10-16T07:14:24;96337.28;;;17.41;100.00
19023;BME280;35226;48.606;8.858;2022-10-16T07:16:50;96333.72;;;17.61;100.00
19023;BME280;35226;48.606;8.858;2022-10-16T07:19:16;96340.56;;;17.60;100.00
19023;BME280;35226;48.606;8.858;2022-10-16T07:21:43;96339.69;;;17.68;100.00
19023;BME280;35226;48.606;8.858;2022-10-16T07:24:14;96337.38;;;17.67;100.00
19023;BME280;35226;48.606;8.858;2022-10-16T07:26:41;96340.97;;;17.73;100.00
19023;BME280;35226;48.606;8.858;2022-10-16T07:29:16;96341.34;;;17.60;100.00
19023;BME280;35226;48.606;8.858;2022-10-16T07:31:43;96344.41;;;17.83;100.00
19023;BME280;35226;48.606;8.858;2022-10-16T07:34:10;96348.19;;;17.80;100.00
19023;BME280;35226;48.606;8.858;2022-10-16T07:36:36;96359.66;;;17.82;100.00
19023;BME280;35226;48.606;8.858;2022-10-16T07:39:03;96357.25;;;17.95;100.00
19023;BME280;35226;48.606;8.858;2022-10-16T07:41:28;96355.50;;;17.97;100.00
19023;BME280;35226;48.606;8.858;2022-10-16T07:43:54;96361.78;;;17.92;100.00
19023;BME280;35226;48.606;8.858;2022-10-16T07:46:22;96369.69;;;17.73;100.00
19023;BME280;35226;48.606;8.858;2022-10-16T07:48:48;96367.50;;;18.03;100.00
19023;BME280;35226;48.606;8.858;2022-10-16T07:51:17;96375.66;;;18.01;100.00
19023;BME280;35226;48.606;8.858;2022-10-16T07:53:43;96368.53;;;18.00;100.00
19023;BME280;35226;48.606;8.858;2022-10-16T07:56:09;96383.13;;;18.10;100.00
19023;BME280;35226;48.606;8.858;2022-10-16T07:58:35;96378.00;;;18.08;100.00
19023;BME280;35226;48.606;8.858;2022-10-16T08:01:13;96390.94;;;17.86;100.00
19023;BME280;35226;48.606;8.858;2022-10-16T08:03:48;96385.63;;;17.88;100.00
19023;BME280;35226;48.606;8.858;2022-10-16T08:06:14;96385.28;;;18.00;100.00
19023;BME280;35226;48.606;8.858;2022-10-16T08:08:40;96387.78;;;18.19;100.00
19023;BME280;35226;48.606;8.858;2022-10-16T08:11:06;96384.81;;;18.28;100.00
19023;BME280;35226;48.606;8.858;2022-10-16T08:13:32;96374.41;;;18.28;100.00
19023;BME280;35226;48.606;8.858;2022-10-16T08:15:57;96382.66;;;18.17;100.00
19023;BME280;35226;48.606;8.858;2022-10-16T08:18:23;96377.91;;;18.23;100.00
19023;BME280;35226;48.606;8.858;2022-10-16T08:20:58;96391.50;;;18.10;100.00
19023;BME280;35226;48.606;8.858;2022-10-16T08:23:25;96394.03;;;18.34;100.00
19023;BME280;35226;48.606;8.858;2022-10-16T08:25:52;96397.03;;;18.51;100.00
19023;BME280;35226;48.606;8.858;2022-10-16T08:28:19;96406.16;;;18.51;100.00
19023;BME280;35226;48.606;8.858;2022-10-16T08:30:45;96397.09;;;18.36;100.00
19023;BME280;35226;48.606;8.858;2022-10-16T08:33:11;96393.94;;;18.48;100.00
19023;BME280;35226;48.606;8.858;2022-10-16T08:35:37;96393.22;;;18.54;100.00
19023;BME280;35226;48.606;8.858;2022-10-16T08:38:04;96400.03;;;18.47;100.00
19023;BME280;35226;48.606;8.858;2022-10-16T08:40:32;96407.78;;;18.58;100.00
19023;BME280;35226;48.606;8.858;2022-10-16T08:48:50;96418.81;;;18.67;100.00
19023;BME280;35226;48.606;8.858;2022-10-16T08:54:03;96425.63;;;18.60;100.00
19023;BME280;35226;48.606;8.858;2022-10-16T08:56:29;96431.13;;;18.55;100.00
19023;BME280;35226;48.606;8.858;2022-10-16T08:58:58;96428.22;;;18.43;100.00
19023;BME280;35226;48.606;8.858;2022-10-16T09:01:36;96419.13;;;18.74;100.00
19023;BME280;35226;48.606;8.858;2022-10-16T09:06:55;96429.22;;;18.92;100.00
19023;BME280;35226;48.606;8.858;2022-10-16T09:09:34;96436.31;;;18.88;100.00
19023;BME280;35226;48.606;8.858;2022-10-16T09:12:26;96447.00;;;18.63;100.00
19023;BME280;35226;48.606;8.858;2022-10-16T09:23:21;96434.50;;;19.47;100.00
19023;BME280;35226;48.606;8.858;2022-10-16T09:25:49;96437.91;;;19.63;100.00
19023;BME280;35226;48.606;8.858;2022-10-16T09:28:17;96433.66;;;19.78;100.00
19023;BME280;35226;48.606;8.858;2022-10-16T09:30:43;96447.53;;;19.50;100.00
19023;BME280;35226;48.606;8.858;2022-10-16T09:33:10;96443.25;;;19.61;100.00
19023;BME280;35226;48.606;8.858;2022-10-16T09:35:40;96442.59;;;19.77;100.00
19023;BME280;35226;48.606;8.858;2022-10-16T09:38:07;96446.41;;;19.79;100.00
19023;BME280;35226;48.606;8.858;2022-10-16T09:40:36;96440.22;;;20.12;100.00
19023;BME280;35226;48.606;8.858;2022-10-16T09:43:22;96433.88;;;20.23;100.00
19023;BME280;35226;48.606;8.858;2022-10-16T09:48:44;96449.25;;;20.39;100.00
19023;BME280;35226;48.606;8.858;2022-10-16T09:51:21;96450.06;;;20.45;100.00
19023;BME280;35226;48.606;8.858;2022-10-16T09:53:48;96449.88;;;20.71;100.00
19023;BME280;35226;48.606;8.858;2022-10-16T09:56:31;96442.47;;;20.79;100.00
19023;BME280;35226;48.606;8.858;2022-10-16T09:59:00;96445.84;;;21.05;100.00
19023;BME280;35226;48.606;8.858;2022-10-16T10:01:39;96450.19;;;21.45;100.00
19023;BME280;35226;48.606;8.858;2022-10-16T10:04:06;96451.72;;;21.46;100.00
19023;BME280;35226;48.606;8.858;2022-10-16T10:09:23;96449.41;;;21.61;100.00
19023;BME280;35226;48.606;8.858;2022-10-16T10:14:24;96458.88;;;21.58;100.00
19023;BME280;35226;48.606;8.858;2022-10-16T10:16:52;96460.56;;;22.06;100.00
19023;BME280;35226;48.606;8.858;2022-10-16T10:19:27;96457.44;;;22.32;100.00
19023;BME280;35226;48.606;8.858;2022-10-16T10:21:53;96459.66;;;22.50;100.00
19023;BME280;35226;48.606;8.858;2022-10-16T10:24:19;96455.41;;;22.73;100.00
19023;BME280;35226;48.606;8.858;2022-10-16T10:34:49;96452.28;;;22.88;100.00
19023;BME280;35226;48.606;8.858;2022-10-16T10:42:57;96452.19;;;23.35;100.00
19023;BME280;35226;48.606;8.858;2022-10-16T10:45:28;96450.75;;;23.82;100.00
19023;BME280;35226;48.606;8.858;2022-10-16T10:50:48;96454.75;;;23.68;100.00
19023;BME280;35226;48.606;8.858;2022-10-16T11:02:31;96445.13;;;23.52;100.00
19023;BME280;35226;48.606;8.858;2022-10-16T11:08:04;96457.97;;;23.48;100.00
19023;BME280;35226;48.606;8.858;2022-10-16T11:10:42;96450.44;;;23.61;100.00
19023;BME280;35226;48.606;8.858;2022-10-16T11:13:24;96454.78;;;23.63;100.00
19023;BME280;35226;48.606;8.858;2022-10-16T11:16:00;96446.56;;;23.65;100.00
19023;BME280;35226;48.606;8.858;2022-10-16T11:18:42;96448.06;;;23.95;100.00
19023;BME280;35226;48.606;8.858;2022-10-16T11:21:13;96447.41;;;23.84;100.00
19023;BME280;35226;48.606;8.858;2022-10-16T11:23:48;96441.22;;;23.85;100.00
19023;BME280;35226;48.606;8.858;2022-10-16T11:26:30;96444.84;;;24.29;100.00
19023;BME280;35226;48.606;8.858;2022-10-16T11:29:00;96450.06;;;24.25;100.00
19023;BME280;35226;48.606;8.858;2022-10-16T11:31:42;96451.00;;;24.09;95.30
19023;BME280;35226;48.606;8.858;2022-10-16T11:34:25;96443.22;;;24.58;90.17
19023;BME280;35226;48.606;8.858;2022-10-16T11:39:32;96428.41;;;25.53;77.59
19023;BME280;35226;48.606;8.858;2022-10-16T11:42:11;96431.56;;;25.18;76.60
19023;BME280;35226;48.606;8.858;2022-10-16T11:56:40;96424.66;;;26.16;59.16
19023;BME280;35226;48.606;8.858;2022-10-16T12:04:52;96427.91;;;25.23;62.94
19023;BME280;35226;48.606;8.858;2022-10-16T12:07:34;96429.47;;;25.05;63.49
19023;BME280;35226;48.606;8.858;2022-10-16T12:10:11;96439.47;;;25.06;64.63
19023;BME280;35226;48.606;8.858;2022-10-16T12:12:43;96437.44;;;25.20;66.74
19023;BME280;35226;48.606;8.858;2022-10-16T12:15:29;96436.09;;;25.07;68.59
19023;BME280;35226;48.606;8.858;2022-10-16T12:17:56;96435.91;;;25.19;64.20
19023;BME280;35226;48.606;8.858;2022-10-16T12:20:31;96432.38;;;24.81;65.44
19023;BME280;35226;48.606;8.858;2022-10-16T12:23:03;96440.16;;;24.75;65.09
19023;BME280;35226;48.606;8.858;2022-10-16T12:28:21;96437.72;;;24.84;68.35
19023;BME280;35226;48.606;8.858;2022-10-16T12:31:06;96430.44;;;24.89;66.87
19023;BME280;35226;48.606;8.858;2022-10-16T12:33:36;96426.41;;;25.03;66.18
19023;BME280;35226;48.606;8.858;2022-10-16T12:36:27;96424.66;;;25.00;64.48
19023;BME280;35226;48.606;8.858;2022-10-16T12:38:54;96418.28;;;25.13;64.26
19023;BME280;35226;48.606;8.858;2022-10-16T12:41:34;96419.84;;;25.27;67.97
19023;BME280;35226;48.606;8.858;2022-10-16T12:44:01;96408.56;;;25.40;69.58
19023;BME280;35226;48.606;8.858;2022-10-16T12:51:54;96418.00;;;25.61;68.32
19023;BME280;35226;48.606;8.858;2022-10-16T12:54:30;96423.69;;;25.74;65.76
19023;BME280;35226;48.606;8.858;2022-10-16T13:02:44;96429.78;;;25.65;65.91
19023;BME280;35226;48.606;8.858;2022-10-16T13:11:03;96434.47;;;25.89;67.97
19023;BME280;35226;48.606;8.858;2022-10-16T13:22:00;96432.38;;;25.63;70.67
19023;BME280;35226;48.606;8.858;2022-10-16T13:29:19;96439.69;;;25.40;78.80
19023;BME280;35226;48.606;8.858;2022-10-16T13:31:46;96432.28;;;25.37;78.18
19023;BME280;35226;48.606;8.858;2022-10-16T13:34:20;96424.84;;;25.21;75.21
19023;BME280;35226;48.606;8.858;2022-10-16T13:36:51;96433.78;;;25.25;77.54
19023;BME280;35226;48.606;8.858;2022-10-16T13:39:29;96432.56;;;25.20;76.95
19023;BME280;35226;48.606;8.858;2022-10-16T13:42:06;96434.75;;;25.27;76.28
19023;BME280;35226;48.606;8.858;2022-10-16T13:44:51;96432.97;;;25.11;78.86
19023;BME280;35226;48.606;8.858;2022-10-16T13:47:19;96432.56;;;25.20;83.24
19023;BME280;35226;48.606;8.858;2022-10-16T13:49:46;96435.97;;;25.00;79.32
19023;BME280;35226;48.606;8.858;2022-10-16T13:52:20;96426.88;;;25.07;84.77
19023;BME280;35226;48.606;8.858;2022-10-16T13:54:46;96437.63;;;25.08;81.37
19023;BME280;35226;48.606;8.858;2022-10-16T13:57:16;96445.06;;;24.93;78.38
19023;BME280;35226;48.606;8.858;2022-10-16T13:59:42;96449.09;;;25.16;79.79
19023;BME280;35226;48.606;8.858;2022-10-16T14:02:31;96444.81;;;24.91;78.02
19023;BME280;35226;48.606;8.858;2022-10-16T14:05:01;96449.41;;;24.75;79.87
19023;BME280;35226;48.606;8.858;2022-10-16T14:07:31;96460.38;;;24.60;79.44
19023;BME280;35226;48.606;8.858;2022-10-16T14:10:07;96452.75;;;24.74;83.46
19023;BME280;35226;48.606;8.858;2022-10-16T14:12:34;96457.66;;;24.73;80.81
19023;BME280;35226;48.606;8.858;2022-10-16T14:14:59;96463.81;;;24.53;79.92
19023;BME280;35226;48.606;8.858;2022-10-16T14:17:32;96458.72;;;24.70;83.97
19023;BME280;35226;48.606;8.858;2022-10-16T14:20:00;96450.09;;;24.62;83.35
19023;BME280;35226;48.606;8.858;2022-10-16T14:24:55;96457.34;;;24.58;80.13
19023;BME280;35226;48.606;8.858;2022-10-16T14:27:39;96470.41;;;24.61;78.09
19023;BME280;35226;48.606;8.858;2022-10-16T14:30:15;96464.31;;;24.57;80.30
19023;BME280;35226;48.606;8.858;2022-10-16T14:32:53;96469.56;;;24.66;79.00
19023;BME280;35226;48.606;8.858;2022-10-16T14:35:29;96469.78;;;24.68;79.28
19023;BME280;35226;48.606;8.858;2022-10-16T14:37:56;96474.91;;;24.69;81.41
19023;BME280;35226;48.606;8.858;2022-10-16T14:40:25;96476.81;;;24.61;80.14
19023;BME280;35226;48.606;8.858;2022-10-16T14:42:52;96477.56;;;24.62;81.36
19023;BME280;35226;48.606;8.858;2022-10-16T14:45:20;96468.94;;;24.54;79.76
19023;BME280;35226;48.606;8.858;2022-10-16T14:47:52;96478.34;;;24.62;81.23
19023;BME280;35226;48.606;8.858;2022-10-16T14:50:19;96463.06;;;24.52;80.64
19023;BME280;35226;48.606;8.858;2022-10-16T14:52:44;96470.63;;;24.63;83.17
19023;BME280;35226;48.606;8.858;2022-10-16T14:55:10;96462.31;;;24.70;84.02
19023;BME280;35226;48.606;8.858;2022-10-16T14:57:37;96459.41;;;24.57;86.09
19023;BME280;35226;48.606;8.858;2022-10-16T15:00:17;96470.41;;;24.61;83.21
19023;BME280;35226;48.606;8.858;2022-10-16T15:02:43;96465.44;;;24.67;83.27
19023;BME280;35226;48.606;8.858;2022-10-16T15:07:39;96470.41;;;24.61;83.06
19023;BME280;35226;48.606;8.858;2022-10-16T15:10:05;96470.16;;;24.59;82.26
19023;BME280;35226;48.606;8.858;2022-10-16T15:12:30;96463.59;;;24.51;82.61